sensor_id;sensor_type;location;lat;lon;timestamp;P1;durP1;ratioP1;P2;durP2;ratioP2
28623;SDS011;15813;46.932;19.658;2023-04-01T00:01:53;6.22;;;2.83;;
28623;SDS011;15813;46.932;19.658;2023-04-01T00:04:18;3.70;;;2.55;;
28623;SDS011;15813;46.932;19.658;2023-04-01T00:06:44;6.05;;;2.72;;
28623;SDS011;15813;46.932;19.658;2023-04-01T00:09:09;4.45;;;2.75;;
28623;SDS011;15813;46.932;19.658;2023-04-01T00:11:34;3.22;;;2.33;;
28623;SDS011;15813;46.932;19.658;2023-04-01T00:14:00;4.95;;;2.70;;
28623;SDS011;15813;46.932;19.658;2023-04-01T00:16:25;6.85;;;2.85;;
28623;SDS011;15813;46.932;19.658;2023-04-01T00:18:51;5.45;;;3.38;;
28623;SDS011;15813;46.932;19.658;2023-04-01T00:21:16;4.57;;;3.50;;
28623;SDS011;15813;46.932;19.658;2023-04-01T00:23:42;5.53;;;2.95;;
28623;SDS011;15813;46.932;19.658;2023-04-01T00:26:08;5.47;;;2.80;;
28623;SDS011;15813;46.932;19.658;2023-04-01T00:28:34;6.45;;;3.10;;
28623;SDS011;15813;46.932;19.658;2023-04-01T00:31:04;5.07;;;3.20;;
28623;SDS011;15813;46.932;19.658;2023-04-01T00:33:30;8.27;;;2.92;;
28623;SDS011;15813;46.932;19.658;2023-04-01T00:35:55;6.47;;;3.25;;
28623;SDS011;15813;46.932;19.658;2023-04-01T00:38:21;5.20;;;2.75;;
28623;SDS011;15813;46.932;19.658;2023-04-01T00:40:46;4.25;;;2.85;;
28623;SDS011;15813;46.932;19.658;2023-04-01T00:43:13;5.00;;;2.60;;
28623;SDS011;15813;46.932;19.658;2023-04-01T00:45:39;8.25;;;3.55;;
28623;SDS011;15813;46.932;19.658;2023-04-01T00:48:07;4.60;;;3.30;;
28623;SDS011;15813;46.932;19.658;2023-04-01T00:50:34;6.75;;;3.15;;
28623;SDS011;15813;46.932;19.658;2023-04-01T00:53:01;6.20;;;2.95;;
28623;SDS011;15813;46.932;19.658;2023-04-01T00:55:28;5.65;;;3.15;;
28623;SDS011;15813;46.932;19.658;2023-04-01T00:57:55;7.00;;;3.75;;
28623;SDS011;15813;46.932;19.658;2023-04-01T01:00:22;7.85;;;3.20;;
28623;SDS011;15813;46.932;19.658;2023-04-01T01:02:47;5.35;;;3.30;;
28623;SDS011;15813;46.932;19.658;2023-04-01T01:05:15;7.60;;;3.67;;
28623;SDS011;15813;46.932;19.658;2023-04-01T01:10:29;5.30;;;2.63;;
28623;SDS011;15813;46.932;19.658;2023-04-01T01:23:28;3.38;;;2.53;;
28623;SDS011;15813;46.932;19.658;2023-04-01T01:31:00;3.88;;;2.40;;
28623;SDS011;15813;46.932;19.658;2023-04-01T01:33:46;4.82;;;2.55;;
28623;SDS011;15813;46.932;19.658;2023-04-01T01:36:13;3.63;;;2.20;;
28623;SDS011;15813;46.932;19.658;2023-04-01T01:38:40;3.20;;;2.40;;
28623;SDS011;15813;46.932;19.658;2023-04-01T01:41:07;2.95;;;2.38;;
28623;SDS011;15813;46.932;19.658;2023-04-01T01:43:40;3.42;;;2.22;;
28623;SDS011;15813;46.932;19.658;2023-04-01T01:46:08;3.30;;;2.17;;
28623;SDS011;15813;46.932;19.658;2023-04-01T01:48:35;3.47;;;2.20;;
28623;SDS011;15813;46.932;19.658;2023-04-01T01:51:01;5.72;;;2.40;;
28623;SDS011;15813;46.932;19.658;2023-04-01T01:53:26;3.10;;;2.17;;
28623;SDS011;15813;46.932;19.658;2023-04-01T01:55:51;6.63;;;2.60;;
28623;SDS011;15813;46.932;19.658;2023-04-01T01:58:39;3.95;;;2.78;;
28623;SDS011;15813;46.932;19.658;2023-04-01T02:01:06;4.68;;;2.10;;
28623;SDS011;15813;46.932;19.658;2023-04-01T02:03:36;4.45;;;2.20;;
28623;SDS011;15813;46.932;19.658;2023-04-01T02:10:56;3.67;;;2.20;;
28623;SDS011;15813;46.932;19.658;2023-04-01T02:13:28;6.45;;;2.88;;
28623;SDS011;15813;46.932;19.658;2023-04-01T02:15:55;7.55;;;3.08;;
28623;SDS011;15813;46.932;19.658;2023-04-01T02:18:23;5.60;;;2.45;;
28623;SDS011;15813;46.932;19.658;2023-04-01T02:20:49;4.88;;;2.95;;
28623;SDS011;15813;46.932;19.658;2023-04-01T02:23:15;12.07;;;3.70;;
28623;SDS011;15813;46.932;19.658;2023-04-01T02:25:40;7.60;;;4.10;;
28623;SDS011;15813;46.932;19.658;2023-04-01T02:28:06;8.52;;;3.58;;
28623;SDS011;15813;46.932;19.658;2023-04-01T02:30:33;7.25;;;3.47;;
28623;SDS011;15813;46.932;19.658;2023-04-01T02:32:59;6.80;;;3.63;;
28623;SDS011;15813;46.932;19.658;2023-04-01T02:35:25;12.88;;;5.13;;
28623;SDS011;15813;46.932;19.658;2023-04-01T02:37:51;17.10;;;7.25;;
28623;SDS011;15813;46.932;19.658;2023-04-01T02:40:17;16.63;;;6.35;;
28623;SDS011;15813;46.932;19.658;2023-04-01T02:42:43;6.25;;;3.78;;
28623;SDS011;15813;46.932;19.658;2023-04-01T02:45:08;12.90;;;4.43;;
28623;SDS011;15813;46.932;19.658;2023-04-01T02:47:34;9.88;;;5.00;;
28623;SDS011;15813;46.932;19.658;2023-04-01T02:49:59;8.27;;;4.90;;
28623;SDS011;15813;46.932;19.658;2023-04-01T02:52:25;8.73;;;4.03;;
28623;SDS011;15813;46.932;19.658;2023-04-01T02:54:50;5.65;;;3.55;;
28623;SDS011;15813;46.932;19.658;2023-04-01T02:57:15;7.35;;;3.55;;
28623;SDS011;15813;46.932;19.658;2023-04-01T02:59:41;5.75;;;3.20;;
28623;SDS011;15813;46.932;19.658;2023-04-01T03:02:06;5.07;;;2.65;;
28623;SDS011;15813;46.932;19.658;2023-04-01T03:04:32;6.20;;;3.10;;
28623;SDS011;15813;46.932;19.658;2023-04-01T03:06:57;5.53;;;2.72;;
28623;SDS011;15813;46.932;19.658;2023-04-01T03:09:22;5.85;;;2.80;;
28623;SDS011;15813;46.932;19.658;2023-04-01T03:11:48;4.00;;;2.58;;
28623;SDS011;15813;46.932;19.658;2023-04-01T03:14:13;7.25;;;2.72;;
28623;SDS011;15813;46.932;19.658;2023-04-01T03:16:38;5.90;;;3.03;;
28623;SDS011;15813;46.932;19.658;2023-04-01T03:19:03;6.13;;;2.70;;
28623;SDS011;15813;46.932;19.658;2023-04-01T03:21:29;5.03;;;2.38;;
28623;SDS011;15813;46.932;19.658;2023-04-01T03:23:54;5.80;;;3.00;;
28623;SDS011;15813;46.932;19.658;2023-04-01T03:26:19;5.15;;;2.83;;
28623;SDS011;15813;46.932;19.658;2023-04-01T03:28:46;3.55;;;2.75;;
28623;SDS011;15813;46.932;19.658;2023-04-01T03:31:11;4.45;;;2.55;;
28623;SDS011;15813;46.932;19.658;2023-04-01T03:33:37;3.15;;;2.70;;
28623;SDS011;15813;46.932;19.658;2023-04-01T03:36:02;6.15;;;2.85;;
28623;SDS011;15813;46.932;19.658;2023-04-01T03:38:31;4.65;;;2.65;;
28623;SDS011;15813;46.932;19.658;2023-04-01T03:40:56;5.90;;;3.15;;
28623;SDS011;15813;46.932;19.658;2023-04-01T03:43:21;3.65;;;2.60;;
28623;SDS011;15813;46.932;19.658;2023-04-01T03:45:47;4.65;;;3.00;;
28623;SDS011;15813;46.932;19.658;2023-04-01T03:48:13;5.57;;;3.33;;
28623;SDS011;15813;46.932;19.658;2023-04-01T03:50:39;7.78;;;2.67;;
28623;SDS011;15813;46.932;19.658;2023-04-01T03:53:04;4.18;;;3.08;;
28623;SDS011;15813;46.932;19.658;2023-04-01T03:55:30;7.63;;;2.78;;
28623;SDS011;15813;46.932;19.658;2023-04-01T03:57:55;7.50;;;2.60;;
28623;SDS011;15813;46.932;19.658;2023-04-01T04:00:20;6.22;;;2.30;;
28623;SDS011;15813;46.932;19.658;2023-04-01T04:02:46;5.57;;;2.72;;
28623;SDS011;15813;46.932;19.658;2023-04-01T04:05:11;4.07;;;2.35;;
28623;SDS011;15813;46.932;19.658;2023-04-01T04:07:38;4.53;;;2.33;;
28623;SDS011;15813;46.932;19.658;2023-04-01T04:10:03;4.68;;;3.03;;
28623;SDS011;15813;46.932;19.658;2023-04-01T04:12:29;7.85;;;2.83;;
28623;SDS011;15813;46.932;19.658;2023-04-01T04:14:54;8.40;;;3.25;;
28623;SDS011;15813;46.932;19.658;2023-04-01T04:17:20;4.65;;;2.58;;
28623;SDS011;15813;46.932;19.658;2023-04-01T04:19:45;4.82;;;2.90;;
28623;SDS011;15813;46.932;19.658;2023-04-01T04:22:10;3.58;;;2.38;;
28623;SDS011;15813;46.932;19.658;2023-04-01T04:24:35;3.08;;;2.40;;
28623;SDS011;15813;46.932;19.658;2023-04-01T04:27:01;4.57;;;2.55;;
28623;SDS011;15813;46.932;19.658;2023-04-01T04:29:26;3.38;;;2.28;;
28623;SDS011;15813;46.932;19.658;2023-04-01T04:31:51;4.53;;;2.50;;
28623;SDS011;15813;46.932;19.658;2023-04-01T04:34:17;5.30;;;2.83;;
28623;SDS011;15813;46.932;19.658;2023-04-01T04:36:43;4.65;;;2.83;;
28623;SDS011;15813;46.932;19.658;2023-04-01T04:39:08;9.50;;;2.63;;
28623;SDS011;15813;46.932;19.658;2023-04-01T04:41:36;6.57;;;2.67;;
28623;SDS011;15813;46.932;19.658;2023-04-01T04:44:01;3.20;;;2.40;;
28623;SDS011;15813;46.932;19.658;2023-04-01T04:46:27;4.30;;;2.60;;
28623;SDS011;15813;46.932;19.658;2023-04-01T04:48:52;3.45;;;2.38;;
28623;SDS011;15813;46.932;19.658;2023-04-01T04:51:18;5.80;;;2.85;;
28623;SDS011;15813;46.932;19.658;2023-04-01T04:53:44;5.13;;;2.97;;
28623;SDS011;15813;46.932;19.658;2023-04-01T04:56:09;5.18;;;3.03;;
28623;SDS011;15813;46.932;19.658;2023-04-01T04:58:35;4.80;;;3.20;;
28623;SDS011;15813;46.932;19.658;2023-04-01T05:01:10;7.32;;;3.40;;
28623;SDS011;15813;46.932;19.658;2023-04-01T05:03:36;10.63;;;4.88;;
28623;SDS011;15813;46.932;19.658;2023-04-01T05:06:01;8.98;;;3.95;;
28623;SDS011;15813;46.932;19.658;2023-04-01T05:08:27;5.50;;;3.80;;
28623;SDS011;15813;46.932;19.658;2023-04-01T05:10:52;5.00;;;3.40;;
28623;SDS011;15813;46.932;19.658;2023-04-01T05:13:17;4.80;;;3.03;;
28623;SDS011;15813;46.932;19.658;2023-04-01T05:15:42;4.78;;;3.70;;
28623;SDS011;15813;46.932;19.658;2023-04-01T05:18:08;8.10;;;3.55;;
28623;SDS011;15813;46.932;19.658;2023-04-01T05:20:33;8.27;;;3.50;;
28623;SDS011;15813;46.932;19.658;2023-04-01T05:22:59;7.72;;;3.80;;
28623;SDS011;15813;46.932;19.658;2023-04-01T05:25:24;6.25;;;3.33;;
28623;SDS011;15813;46.932;19.658;2023-04-01T05:27:50;6.07;;;3.47;;
28623;SDS011;15813;46.932;19.658;2023-04-01T05:30:15;6.32;;;3.25;;
28623;SDS011;15813;46.932;19.658;2023-04-01T05:32:40;5.20;;;2.97;;
28623;SDS011;15813;46.932;19.658;2023-04-01T05:35:06;6.03;;;2.63;;
28623;SDS011;15813;46.932;19.658;2023-04-01T05:37:33;6.35;;;3.10;;
28623;SDS011;15813;46.932;19.658;2023-04-01T05:39:58;5.85;;;3.70;;
28623;SDS011;15813;46.932;19.658;2023-04-01T05:42:23;7.45;;;4.40;;
28623;SDS011;15813;46.932;19.658;2023-04-01T05:44:49;9.77;;;5.18;;
28623;SDS011;15813;46.932;19.658;2023-04-01T05:47:14;10.18;;;5.45;;
28623;SDS011;15813;46.932;19.658;2023-04-01T05:49:39;10.80;;;6.40;;
28623;SDS011;15813;46.932;19.658;2023-04-01T05:52:05;11.40;;;5.55;;
28623;SDS011;15813;46.932;19.658;2023-04-01T05:54:30;12.18;;;6.80;;
28623;SDS011;15813;46.932;19.658;2023-04-01T05:56:55;11.18;;;5.95;;
28623;SDS011;15813;46.932;19.658;2023-04-01T05:59:21;9.07;;;5.47;;
28623;SDS011;15813;46.932;19.658;2023-04-01T06:01:46;10.82;;;6.10;;
28623;SDS011;15813;46.932;19.658;2023-04-01T06:04:15;13.00;;;5.95;;
28623;SDS011;15813;46.932;19.658;2023-04-01T06:06:41;11.13;;;5.88;;
28623;SDS011;15813;46.932;19.658;2023-04-01T06:09:18;14.95;;;5.82;;
28623;SDS011;15813;46.932;19.658;2023-04-01T06:19:42;12.57;;;5.70;;
28623;SDS011;15813;46.932;19.658;2023-04-01T06:22:21;9.32;;;5.63;;
28623;SDS011;15813;46.932;19.658;2023-04-01T06:24:54;10.70;;;4.68;;
28623;SDS011;15813;46.932;19.658;2023-04-01T06:35:12;6.60;;;3.50;;
28623;SDS011;15813;46.932;19.658;2023-04-01T06:43:12;7.72;;;3.60;;
28623;SDS011;15813;46.932;19.658;2023-04-01T06:53:37;8.98;;;3.30;;
28623;SDS011;15813;46.932;19.658;2023-04-01T06:56:10;5.20;;;2.83;;
28623;SDS011;15813;46.932;19.658;2023-04-01T06:58:39;7.53;;;2.50;;
28623;SDS011;15813;46.932;19.658;2023-04-01T07:01:08;7.43;;;3.45;;
28623;SDS011;15813;46.932;19.658;2023-04-01T07:06:35;3.92;;;2.25;;
28623;SDS011;15813;46.932;19.658;2023-04-01T07:09:02;5.30;;;2.33;;
28623;SDS011;15813;46.932;19.658;2023-04-01T07:11:31;5.68;;;3.08;;
28623;SDS011;15813;46.932;19.658;2023-04-01T07:14:17;4.63;;;2.13;;
28623;SDS011;15813;46.932;19.658;2023-04-01T07:16:51;4.15;;;2.55;;
28623;SDS011;15813;46.932;19.658;2023-04-01T07:19:22;6.47;;;2.70;;
28623;SDS011;15813;46.932;19.658;2023-04-01T07:21:54;8.90;;;2.45;;
28623;SDS011;15813;46.932;19.658;2023-04-01T07:24:23;3.72;;;2.10;;
28623;SDS011;15813;46.932;19.658;2023-04-01T07:26:52;5.38;;;2.42;;
28623;SDS011;15813;46.932;19.658;2023-04-01T07:29:18;4.53;;;2.80;;
28623;SDS011;15813;46.932;19.658;2023-04-01T07:34:10;6.30;;;2.53;;
28623;SDS011;15813;46.932;19.658;2023-04-01T07:44:17;5.07;;;2.25;;
28623;SDS011;15813;46.932;19.658;2023-04-01T07:54:13;3.80;;;1.40;;
28623;SDS011;15813;46.932;19.658;2023-04-01T07:56:51;3.55;;;1.45;;
28623;SDS011;15813;46.932;19.658;2023-04-01T08:04:49;3.42;;;1.77;;
28623;SDS011;15813;46.932;19.658;2023-04-01T08:13:03;2.53;;;1.33;;
28623;SDS011;15813;46.932;19.658;2023-04-01T08:18:03;3.20;;;1.40;;
28623;SDS011;15813;46.932;19.658;2023-04-01T08:20:44;6.40;;;1.50;;
28623;SDS011;15813;46.932;19.658;2023-04-01T08:25:37;6.75;;;2.13;;
28623;SDS011;15813;46.932;19.658;2023-04-01T08:28:08;8.00;;;1.95;;
28623;SDS011;15813;46.932;19.658;2023-04-01T08:30:47;3.88;;;2.03;;
28623;SDS011;15813;46.932;19.658;2023-04-01T08:38:38;2.75;;;1.70;;
28623;SDS011;15813;46.932;19.658;2023-04-01T08:43:54;4.63;;;2.13;;
28623;SDS011;15813;46.932;19.658;2023-04-01T08:46:27;7.32;;;2.58;;
28623;SDS011;15813;46.932;19.658;2023-04-01T08:56:41;4.50;;;2.00;;
28623;SDS011;15813;46.932;19.658;2023-04-01T09:20:17;3.13;;;1.95;;
28623;SDS011;15813;46.932;19.658;2023-04-01T09:27:55;5.78;;;2.47;;
28623;SDS011;15813;46.932;19.658;2023-04-01T09:35:22;3.70;;;1.60;;
28623;SDS011;15813;46.932;19.658;2023-04-01T09:45:47;4.78;;;1.83;;
28623;SDS011;15813;46.932;19.658;2023-04-01T09:56:12;2.67;;;1.38;;
28623;SDS011;15813;46.932;19.658;2023-04-01T10:14:25;3.15;;;1.73;;
28623;SDS011;15813;46.932;19.658;2023-04-01T10:30:19;5.78;;;1.88;;
28623;SDS011;15813;46.932;19.658;2023-04-01T10:51:04;3.55;;;1.30;;
28623;SDS011;15813;46.932;19.658;2023-04-01T11:01:47;4.80;;;1.30;;
28623;SDS011;15813;46.932;19.658;2023-04-01T11:04:36;2.80;;;0.98;;
28623;SDS011;15813;46.932;19.658;2023-04-01T11:14:39;2.60;;;1.00;;
28623;SDS011;15813;46.932;19.658;2023-04-01T11:19:40;3.17;;;1.30;;
28623;SDS011;15813;46.932;19.658;2023-04-01T11:24:51;2.35;;;1.00;;
28623;SDS011;15813;46.932;19.658;2023-04-01T11:32:50;2.75;;;1.20;;
28623;SDS011;15813;46.932;19.658;2023-04-01T11:35:36;1.95;;;1.30;;
28623;SDS011;15813;46.932;19.658;2023-04-01T11:40:52;2.20;;;0.98;;
28623;SDS011;15813;46.932;19.658;2023-04-01T11:48:34;3.30;;;1.20;;
28623;SDS011;15813;46.932;19.658;2023-04-01T12:01:22;5.18;;;1.27;;
28623;SDS011;15813;46.932;19.658;2023-04-01T12:17:07;2.97;;;0.90;;
28623;SDS011;15813;46.932;19.658;2023-04-01T12:22:40;1.17;;;0.63;;
28623;SDS011;15813;46.932;19.658;2023-04-01T12:24:56;3.33;;;0.95;;
28623;SDS011;15813;46.932;19.658;2023-04-01T12:46:16;2.90;;;1.17;;
28623;SDS011;15813;46.932;19.658;2023-04-01T12:49:01;2.88;;;1.25;;
28623;SDS011;15813;46.932;19.658;2023-04-01T12:56:39;4.30;;;1.42;;
28623;SDS011;15813;46.932;19.658;2023-04-01T13:09:38;3.05;;;1.17;;
28623;SDS011;15813;46.932;19.658;2023-04-01T13:17:27;6.60;;;1.30;;
28623;SDS011;15813;46.932;19.658;2023-04-01T13:27:44;2.58;;;1.20;;
28623;SDS011;15813;46.932;19.658;2023-04-01T13:32:57;3.15;;;1.10;;
28623;SDS011;15813;46.932;19.658;2023-04-01T13:35:33;8.18;;;2.35;;
28623;SDS011;15813;46.932;19.658;2023-04-01T14:17:36;5.50;;;1.38;;
28623;SDS011;15813;46.932;19.658;2023-04-01T14:20:13;6.90;;;1.00;;
28623;SDS011;15813;46.932;19.658;2023-04-01T14:22:56;5.22;;;2.28;;
28623;SDS011;15813;46.932;19.658;2023-04-01T14:33:20;5.00;;;1.20;;
28623;SDS011;15813;46.932;19.658;2023-04-01T14:35:50;5.47;;;2.00;;
28623;SDS011;15813;46.932;19.658;2023-04-01T14:41:06;3.05;;;1.77;;
28623;SDS011;15813;46.932;19.658;2023-04-01T14:43:47;8.18;;;2.47;;
28623;SDS011;15813;46.932;19.658;2023-04-01T14:46:27;2.33;;;1.00;;
28623;SDS011;15813;46.932;19.658;2023-04-01T14:48:57;4.40;;;1.52;;
28623;SDS011;15813;46.932;19.658;2023-04-01T14:51:36;4.43;;;1.20;;
28623;SDS011;15813;46.932;19.658;2023-04-01T14:59:08;1.90;;;1.02;;
28623;SDS011;15813;46.932;19.658;2023-04-01T15:01:47;3.47;;;1.35;;
28623;SDS011;15813;46.932;19.658;2023-04-01T15:04:21;6.68;;;1.80;;
28623;SDS011;15813;46.932;19.658;2023-04-01T15:22:23;5.68;;;1.85;;
28623;SDS011;15813;46.932;19.658;2023-04-01T15:45:58;3.28;;;1.20;;
28623;SDS011;15813;46.932;19.658;2023-04-01T15:50:55;2.20;;;1.10;;
28623;SDS011;15813;46.932;19.658;2023-04-01T15:53:30;4.32;;;1.40;;
28623;SDS011;15813;46.932;19.658;2023-04-01T16:03:22;1.98;;;0.93;;
28623;SDS011;15813;46.932;19.658;2023-04-01T16:06:11;5.32;;;1.05;;
28623;SDS011;15813;46.932;19.658;2023-04-01T16:21:34;2.05;;;1.15;;
28623;SDS011;15813;46.932;19.658;2023-04-01T16:26:39;2.47;;;0.98;;
28623;SDS011;15813;46.932;19.658;2023-04-01T16:29:10;2.08;;;1.00;;
28623;SDS011;15813;46.932;19.658;2023-04-01T16:31:42;0.93;;;0.80;;
28623;SDS011;15813;46.932;19.658;2023-04-01T16:34:19;2.25;;;1.00;;
28623;SDS011;15813;46.932;19.658;2023-04-01T16:39:33;1.50;;;0.70;;
28623;SDS011;15813;46.932;19.658;2023-04-01T16:44:31;1.73;;;1.02;;
28623;SDS011;15813;46.932;19.658;2023-04-01T16:47:10;0.70;;;0.70;;
28623;SDS011;15813;46.932;19.658;2023-04-01T16:49:51;2.25;;;0.80;;
28623;SDS011;15813;46.932;19.658;2023-04-01T16:55:12;1.17;;;0.77;;
28623;SDS011;15813;46.932;19.658;2023-04-01T16:57:50;2.88;;;1.13;;
28623;SDS011;15813;46.932;19.658;2023-04-01T17:00:19;2.60;;;1.20;;
28623;SDS011;15813;46.932;19.658;2023-04-01T17:02:49;2.25;;;1.13;;
28623;SDS011;15813;46.932;19.658;2023-04-01T17:05:16;2.65;;;1.20;;
28623;SDS011;15813;46.932;19.658;2023-04-01T17:08:01;2.72;;;1.25;;
28623;SDS011;15813;46.932;19.658;2023-04-01T17:13:05;3.33;;;1.45;;
28623;SDS011;15813;46.932;19.658;2023-04-01T17:18:02;5.38;;;2.13;;
28623;SDS011;15813;46.932;19.658;2023-04-01T17:20:38;7.35;;;2.47;;
28623;SDS011;15813;46.932;19.658;2023-04-01T17:54:53;5.45;;;2.55;;
28623;SDS011;15813;46.932;19.658;2023-04-01T17:57:39;6.50;;;2.70;;
28623;SDS011;15813;46.932;19.658;2023-04-01T18:00:22;8.65;;;2.42;;
28623;SDS011;15813;46.932;19.658;2023-04-01T18:16:11;9.27;;;3.35;;
28623;SDS011;15813;46.932;19.658;2023-04-01T18:23:45;22.58;;;6.88;;
28623;SDS011;15813;46.932;19.658;2023-04-01T18:28:39;44.30;;;12.40;;
28623;SDS011;15813;46.932;19.658;2023-04-01T18:38:34;42.58;;;14.95;;
28623;SDS011;15813;46.932;19.658;2023-04-01T18:48:59;59.55;;;23.60;;
28623;SDS011;15813;46.932;19.658;2023-04-01T18:54:12;53.20;;;16.65;;
28623;SDS011;15813;46.932;19.658;2023-04-01T18:56:43;32.20;;;12.18;;
28623;SDS011;15813;46.932;19.658;2023-04-01T18:59:26;22.02;;;9.55;;
28623;SDS011;15813;46.932;19.658;2023-04-01T19:15:34;25.45;;;9.50;;
28623;SDS011;15813;46.932;19.658;2023-04-01T19:18:17;20.67;;;10.18;;
28623;SDS011;15813;46.932;19.658;2023-04-01T19:20:52;16.88;;;8.07;;
28623;SDS011;15813;46.932;19.658;2023-04-01T19:26:01;17.92;;;7.55;;
28623;SDS011;15813;46.932;19.658;2023-04-01T19:28:33;23.00;;;7.82;;
28623;SDS011;15813;46.932;19.658;2023-04-01T19:31:12;16.13;;;7.22;;
28623;SDS011;15813;46.932;19.658;2023-04-01T19:38:52;17.85;;;6.45;;
28623;SDS011;15813;46.932;19.658;2023-04-01T19:41:39;13.43;;;6.40;;
28623;SDS011;15813;46.932;19.658;2023-04-01T19:44:15;15.25;;;6.20;;
28623;SDS011;15813;46.932;19.658;2023-04-01T19:46:45;16.58;;;6.45;;
28623;SDS011;15813;46.932;19.658;2023-04-01T19:56:42;20.13;;;8.53;;
28623;SDS011;15813;46.932;19.658;2023-04-01T20:09:52;15.73;;;6.38;;
28623;SDS011;15813;46.932;19.658;2023-04-01T20:14:55;11.07;;;5.03;;
28623;SDS011;15813;46.932;19.658;2023-04-01T20:22:37;14.55;;;6.03;;
28623;SDS011;15813;46.932;19.658;2023-04-01T20:36:20;12.43;;;6.05;;
28623;SDS011;15813;46.932;19.658;2023-04-01T20:41:17;13.70;;;5.80;;
28623;SDS011;15813;46.932;19.658;2023-04-01T20:51:59;12.93;;;6.45;;
28623;SDS011;15813;46.932;19.658;2023-04-01T20:59:39;15.50;;;6.15;;
28623;SDS011;15813;46.932;19.658;2023-04-01T21:17:23;11.73;;;5.78;;
28623;SDS011;15813;46.932;19.658;2023-04-01T21:20:04;8.30;;;5.28;;
28623;SDS011;15813;46.932;19.658;2023-04-01T21:22:39;14.02;;;5.35;;
28623;SDS011;15813;46.932;19.658;2023-04-01T21:25:26;10.57;;;5.03;;
28623;SDS011;15813;46.932;19.658;2023-04-01T21:30:29;8.93;;;5.25;;
28623;SDS011;15813;46.932;19.658;2023-04-01T21:50:28;18.00;;;6.20;;
28623;SDS011;15813;46.932;19.658;2023-04-01T21:53:16;13.23;;;5.82;;
28623;SDS011;15813;46.932;19.658;2023-04-01T22:16:57;9.77;;;5.00;;
28623;SDS011;15813;46.932;19.658;2023-04-01T22:24:41;15.77;;;5.95;;
28623;SDS011;15813;46.932;19.658;2023-04-01T22:32:27;10.48;;;5.15;;
28623;SDS011;15813;46.932;19.658;2023-04-01T22:34:59;12.85;;;5.28;;
28623;SDS011;15813;46.932;19.658;2023-04-01T22:40:00;11.55;;;4.95;;
28623;SDS011;15813;46.932;19.658;2023-04-01T22:42:44;9.97;;;5.13;;
28623;SDS011;15813;46.932;19.658;2023-04-01T22:48:17;11.57;;;5.15;;
28623;SDS011;15813;46.932;19.658;2023-04-01T22:53:21;7.57;;;4.63;;
28623;SDS011;15813;46.932;19.658;2023-04-01T22:55:49;10.63;;;4.97;;
28623;SDS011;15813;46.932;19.658;2023-04-01T22:58:23;11.63;;;5.20;;
28623;SDS011;15813;46.932;19.658;2023-04-01T23:00:49;11.95;;;5.55;;
28623;SDS011;15813;46.932;19.658;2023-04-01T23:03:20;11.45;;;5.03;;
28623;SDS011;15813;46.932;19.658;2023-04-01T23:05:50;12.65;;;5.60;;
28623;SDS011;15813;46.932;19.658;2023-04-01T23:08:37;11.45;;;5.15;;
28623;SDS011;15813;46.932;19.658;2023-04-01T23:11:10;8.80;;;5.15;;
28623;SDS011;15813;46.932;19.658;2023-04-01T23:13:39;12.00;;;4.15;;
28623;SDS011;15813;46.932;19.658;2023-04-01T23:16:06;7.07;;;3.63;;
28623;SDS011;15813;46.932;19.658;2023-04-01T23:21:01;6.38;;;3.45;;
28623;SDS011;15813;46.932;19.658;2023-04-01T23:28:53;5.63;;;3.33;;
28623;SDS011;15813;46.932;19.658;2023-04-01T23:31:26;6.03;;;2.85;;
28623;SDS011;15813;46.932;19.658;2023-04-01T23:36:37;4.32;;;2.67;;
28623;SDS011;15813;46.932;19.658;2023-04-01T23:39:04;6.60;;;3.20;;
28623;SDS011;15813;46.932;19.658;2023-04-01T23:41:30;7.68;;;3.70;;
28623;SDS011;15813;46.932;19.658;2023-04-01T23:46:25;4.72;;;2.70;;
28623;SDS011;15813;46.932;19.658;2023-04-01T23:48:51;5.45;;;2.72;;
28623;SDS011;15813;46.932;19.658;2023-04-01T23:51:36;5.47;;;2.65;;
28623;SDS011;15813;46.932;19.658;2023-04-01T23:57:09;4.70;;;2.70;;
28623;SDS011;15813;46.932;19.658;2023-04-01T23:59:36;3.65;;;2.70;;
